createdAt,value
2023-01-26T00:00:56.571Z,7.10
2023-01-26T00:03:23.416Z,7.15
2023-01-26T00:05:50.069Z,7.22
2023-01-26T00:08:16.716Z,7.25
2023-01-26T00:10:43.751Z,7.36
2023-01-26T00:13:10.490Z,7.35
2023-01-26T00:15:37.088Z,7.37
2023-01-26T00:18:07.271Z,7.28
2023-01-26T00:20:33.935Z,7.27
2023-01-26T00:23:00.648Z,7.22
2023-01-26T00:25:27.538Z,7.08
2023-01-26T00:27:54.156Z,7.10
2023-01-26T00:30:21.104Z,7.04
2023-01-26T00:32:47.795Z,6.93
2023-01-26T00:35:14.442Z,6.95
2023-01-26T00:37:41.887Z,6.98
2023-01-26T00:40:10.232Z,6.95
2023-01-26T00:42:36.968Z,6.87
2023-01-26T00:45:04.009Z,6.84
2023-01-26T00:47:30.692Z,6.88
2023-01-26T00:49:57.329Z,6.79
2023-01-26T00:52:25.393Z,6.77
2023-01-26T00:54:52.081Z,6.77
2023-01-26T00:57:20.097Z,6.60
2023-01-26T00:59:46.687Z,6.68
2023-01-26T01:02:13.384Z,6.60
2023-01-26T01:04:40.096Z,6.66
2023-01-26T01:07:06.710Z,6.75
2023-01-26T01:09:33.366Z,6.76
2023-01-26T01:12:00.055Z,6.66
2023-01-26T01:14:26.801Z,6.50
2023-01-26T01:16:53.404Z,6.45
2023-01-26T01:19:20.008Z,6.29
2023-01-26T01:21:46.636Z,6.50
2023-01-26T01:24:13.365Z,6.53
2023-01-26T01:26:40.365Z,6.70
2023-01-26T01:29:07.114Z,6.67
2023-01-26T01:31:33.846Z,6.82
2023-01-26T01:34:00.488Z,6.73
2023-01-26T01:36:28.058Z,6.51
2023-01-26T01:38:54.737Z,6.64
2023-01-26T01:41:21.487Z,6.52
2023-01-26T01:43:48.140Z,6.32
2023-01-26T01:46:37.783Z,6.35
2023-01-26T01:49:06.736Z,6.25
2023-01-26T01:51:43.763Z,5.85
2023-01-26T01:54:12.603Z,5.81
2023-01-26T01:56:43.625Z,5.82
2023-01-26T01:59:10.281Z,5.87
2023-01-26T02:01:37.172Z,6.03
2023-01-26T02:04:04.750Z,5.93
2023-01-26T02:06:31.356Z,6.09
2023-01-26T02:08:58.036Z,6.23
2023-01-26T02:11:27.680Z,6.18
2023-01-26T02:13:54.306Z,6.22
2023-01-26T02:16:21.150Z,6.29
2023-01-26T02:18:47.823Z,6.44
2023-01-26T02:21:19.416Z,6.50
2023-01-26T02:23:45.948Z,6.33
2023-01-26T02:26:12.424Z,6.29
2023-01-26T02:28:39.287Z,6.27
2023-01-26T02:31:06.052Z,6.35
2023-01-26T02:33:32.888Z,6.55
2023-01-26T02:35:59.906Z,6.44
2023-01-26T02:38:29.060Z,6.24
2023-01-26T02:41:00.009Z,6.30
2023-01-26T02:43:26.785Z,6.26
2023-01-26T02:45:54.028Z,6.25
2023-01-26T02:48:20.762Z,6.10
2023-01-26T02:50:48.183Z,6.01
2023-01-26T02:53:14.848Z,5.93
2023-01-26T02:55:41.981Z,5.89
2023-01-26T02:58:08.639Z,5.62
2023-01-26T03:00:36.052Z,5.75
2023-01-26T03:03:02.750Z,5.71
2023-01-26T03:05:29.367Z,5.86
2023-01-26T03:07:56.129Z,5.68
2023-01-26T03:10:22.750Z,5.82
2023-01-26T03:12:49.458Z,5.81
2023-01-26T03:15:16.209Z,5.45
2023-01-26T03:17:42.912Z,5.59
2023-01-26T03:20:10.424Z,5.66
2023-01-26T03:22:37.278Z,5.41
2023-01-26T03:25:04.058Z,5.64
2023-01-26T03:27:36.393Z,5.61
2023-01-26T03:30:03.304Z,5.39
2023-01-26T03:32:29.960Z,5.56
2023-01-26T03:34:56.606Z,5.61
2023-01-26T03:37:23.445Z,5.36
2023-01-26T03:39:50.835Z,5.44
2023-01-26T03:42:18.569Z,5.51
2023-01-26T03:44:45.515Z,5.57
2023-01-26T03:47:12.149Z,5.37
2023-01-26T03:49:38.801Z,5.19
2023-01-26T03:52:05.424Z,5.25
2023-01-26T03:54:33.111Z,5.22
2023-01-26T03:56:59.757Z,5.36
2023-01-26T03:59:26.671Z,5.48
2023-01-26T04:01:53.455Z,5.47
2023-01-26T04:04:20.096Z,5.41
2023-01-26T04:06:47.325Z,5.55
2023-01-26T04:09:15.239Z,5.54
2023-01-26T04:11:42.278Z,5.49
2023-01-26T04:14:11.301Z,5.48
2023-01-26T04:16:38.072Z,5.47
2023-01-26T04:19:04.924Z,5.53
2023-01-26T04:21:31.566Z,5.55
2023-01-26T04:23:58.299Z,5.43
2023-01-26T04:26:29.367Z,5.42
2023-01-26T04:28:56.021Z,5.46
2023-01-26T04:31:22.815Z,5.28
2023-01-26T04:33:49.542Z,5.16
2023-01-26T04:36:16.263Z,5.27
2023-01-26T04:38:42.926Z,5.11
2023-01-26T04:41:09.580Z,5.25
2023-01-26T04:43:36.238Z,5.03
2023-01-26T04:46:07.401Z,4.66
2023-01-26T04:48:34.271Z,4.74
2023-01-26T04:51:03.326Z,4.80
2023-01-26T04:53:30.056Z,4.78
2023-01-26T04:55:56.819Z,5.02
2023-01-26T04:58:23.713Z,5.21
2023-01-26T05:00:51.999Z,5.06
2023-01-26T05:03:18.844Z,5.16
2023-01-26T05:05:45.460Z,5.29
2023-01-26T05:08:12.100Z,5.37
2023-01-26T05:10:38.722Z,5.31
2023-01-26T05:13:05.336Z,4.92
2023-01-26T05:15:31.975Z,5.04
2023-01-26T05:17:59.016Z,5.04
2023-01-26T05:20:26.308Z,4.86
2023-01-26T05:22:53.041Z,5.00
2023-01-26T05:25:19.784Z,5.18
2023-01-26T05:27:46.567Z,5.22
2023-01-26T05:30:14.738Z,4.87
2023-01-26T05:32:41.680Z,5.20
2023-01-26T05:35:08.649Z,5.23
2023-01-26T05:37:35.259Z,5.09
2023-01-26T05:40:01.864Z,5.13
2023-01-26T05:42:29.735Z,5.23
2023-01-26T05:44:56.564Z,5.20
2023-01-26T05:47:24.660Z,5.30
2023-01-26T05:49:51.339Z,5.04
2023-01-26T05:52:19.095Z,4.86
2023-01-26T05:54:45.788Z,4.79
2023-01-26T05:57:12.600Z,4.89
2023-01-26T05:59:39.235Z,4.61
2023-01-26T06:02:06.024Z,4.60
2023-01-26T06:04:32.799Z,4.82
2023-01-26T06:06:59.517Z,4.73
2023-01-26T06:09:27.489Z,4.55
2023-01-26T06:11:54.506Z,4.67
2023-01-26T06:14:21.182Z,4.73
2023-01-26T06:16:48.925Z,4.95
2023-01-26T06:19:15.585Z,4.94
2023-01-26T06:21:42.311Z,4.85
2023-01-26T06:24:08.987Z,4.78
2023-01-26T06:26:35.625Z,4.75
2023-01-26T06:29:02.277Z,4.90
2023-01-26T06:31:29.181Z,4.86
2023-01-26T06:33:55.955Z,4.82
2023-01-26T06:36:22.657Z,4.78
2023-01-26T06:38:50.248Z,4.86
2023-01-26T06:41:17.068Z,4.89
2023-01-26T06:43:47.842Z,4.86
2023-01-26T06:46:15.185Z,4.93
2023-01-26T06:48:41.804Z,5.04
2023-01-26T06:51:20.258Z,5.22
2023-01-26T06:53:56.535Z,5.31
2023-01-26T06:56:23.529Z,5.13
2023-01-26T06:58:50.301Z,5.17
2023-01-26T07:01:18.431Z,5.26
2023-01-26T07:03:45.088Z,5.29
2023-01-26T07:06:11.783Z,5.31
2023-01-26T07:08:38.495Z,5.33
2023-01-26T07:11:07.989Z,5.28
2023-01-26T07:13:35.734Z,5.38
2023-01-26T07:16:06.989Z,5.55
2023-01-26T07:18:33.696Z,5.64
2023-01-26T07:21:08.233Z,5.77
2023-01-26T07:23:35.218Z,5.73
2023-01-26T07:26:03.779Z,5.61
2023-01-26T07:28:30.626Z,5.51
2023-01-26T07:30:58.074Z,5.64
2023-01-26T07:33:24.927Z,5.55
2023-01-26T07:35:55.228Z,5.41
2023-01-26T07:38:21.869Z,5.34
2023-01-26T07:40:48.609Z,5.41
2023-01-26T07:43:15.410Z,5.47
2023-01-26T07:45:48.720Z,5.42
2023-01-26T07:48:15.355Z,5.64
2023-01-26T07:50:42.032Z,5.75
2023-01-26T07:53:08.677Z,5.82
2023-01-26T07:55:35.722Z,5.94
2023-01-26T07:58:02.323Z,6.00
2023-01-26T08:00:29.005Z,5.95
2023-01-26T08:02:55.780Z,5.97
2023-01-26T08:05:22.421Z,5.95
2023-01-26T08:07:49.101Z,5.89
2023-01-26T08:10:15.937Z,5.83
2023-01-26T08:12:42.542Z,5.92
2023-01-26T08:15:09.534Z,5.92
2023-01-26T08:17:36.320Z,5.93
2023-01-26T08:20:02.994Z,6.07
2023-01-26T08:22:29.660Z,6.11
2023-01-26T08:24:56.280Z,6.19
2023-01-26T08:27:22.951Z,6.20
2023-01-26T08:29:49.569Z,6.21
2023-01-26T08:32:16.236Z,6.19
2023-01-26T08:34:42.869Z,6.19
2023-01-26T08:37:09.531Z,6.17
2023-01-26T08:39:36.184Z,6.18
2023-01-26T08:42:02.817Z,6.34
2023-01-26T08:44:29.427Z,6.34
2023-01-26T08:46:56.485Z,6.41
2023-01-26T08:49:23.126Z,6.45
2023-01-26T08:51:49.851Z,6.53
2023-01-26T08:54:16.555Z,6.47
2023-01-26T08:56:43.188Z,6.41
2023-01-26T08:59:09.838Z,6.33
2023-01-26T09:01:36.448Z,6.34
2023-01-26T09:04:03.184Z,6.28
2023-01-26T09:06:29.899Z,6.15
2023-01-26T09:08:56.829Z,6.19
2023-01-26T09:11:23.468Z,5.96
2023-01-26T09:13:50.979Z,5.91
2023-01-26T09:16:19.320Z,5.95
2023-01-26T09:18:52.083Z,6.13
2023-01-26T09:21:18.973Z,6.09
2023-01-26T09:23:45.648Z,6.04
2023-01-26T09:26:12.324Z,6.13
2023-01-26T09:28:38.983Z,5.95
2023-01-26T09:31:06.604Z,6.00
2023-01-26T09:33:33.434Z,6.09
2023-01-26T09:36:07.760Z,6.15
2023-01-26T09:38:34.491Z,6.22
2023-01-26T09:41:10.199Z,6.35
2023-01-26T09:43:44.298Z,6.40
2023-01-26T09:46:27.758Z,6.45
2023-01-26T09:49:14.305Z,6.55
2023-01-26T09:52:03.575Z,6.70
2023-01-26T09:54:35.363Z,6.79
2023-01-26T09:57:02.349Z,6.79
2023-01-26T09:59:38.154Z,6.51
2023-01-26T10:02:25.679Z,6.67
2023-01-26T10:04:54.465Z,6.65
2023-01-26T10:07:21.079Z,6.67
2023-01-26T10:09:48.821Z,6.75
2023-01-26T10:12:15.372Z,6.83
2023-01-26T10:14:57.585Z,6.87
2023-01-26T10:17:41.457Z,6.82
2023-01-26T10:20:26.818Z,6.86
2023-01-26T10:23:05.762Z,6.89
2023-01-26T10:25:39.792Z,6.95
2023-01-26T10:28:19.024Z,6.94
2023-01-26T10:30:46.943Z,6.94
2023-01-26T10:33:25.586Z,6.91
2023-01-26T10:35:52.457Z,6.90
2023-01-26T10:38:34.045Z,6.91
2023-01-26T10:41:01.349Z,6.92
2023-01-26T10:43:27.963Z,7.01
2023-01-26T10:45:54.647Z,7.06
2023-01-26T10:48:24.293Z,7.06
2023-01-26T10:50:51.389Z,7.09
2023-01-26T10:53:27.728Z,7.15
2023-01-26T10:56:14.967Z,7.22
2023-01-26T10:58:41.518Z,7.19
2023-01-26T11:01:08.878Z,7.11
2023-01-26T11:03:35.496Z,7.09
2023-01-26T11:06:14.608Z,7.10
2023-01-26T11:08:41.298Z,7.13
2023-01-26T11:11:18.265Z,7.12
2023-01-26T11:13:44.865Z,7.17
2023-01-26T11:16:17.522Z,7.27
2023-01-26T11:18:53.359Z,7.20
2023-01-26T11:21:53.462Z,7.22
2023-01-26T11:24:33.409Z,7.19
2023-01-26T11:27:17.933Z,7.08
2023-01-26T11:29:53.555Z,6.66
2023-01-26T11:32:46.814Z,6.66
2023-01-26T11:35:22.705Z,6.80
2023-01-26T11:38:04.520Z,6.83
2023-01-26T11:40:59.152Z,6.98
2023-01-26T11:43:44.802Z,7.07
2023-01-26T11:46:54.262Z,6.91
2023-01-26T11:49:24.987Z,7.00
2023-01-26T11:52:24.620Z,6.83
2023-01-26T11:55:22.186Z,6.88
2023-01-26T11:58:07.407Z,6.99
2023-01-26T12:00:40.227Z,6.65
2023-01-26T12:03:15.083Z,6.84
2023-01-26T12:05:50.077Z,6.74
2023-01-26T12:08:36.320Z,6.71
2023-01-26T12:11:09.550Z,6.73
2023-01-26T12:13:41.110Z,6.75
2023-01-26T12:16:16.648Z,6.67
2023-01-26T12:19:09.159Z,6.75
2023-01-26T12:21:37.339Z,6.40
2023-01-26T12:24:18.163Z,6.12
2023-01-26T12:26:55.822Z,6.19
2023-01-26T12:29:25.790Z,6.34
2023-01-26T12:32:11.994Z,6.57
2023-01-26T12:34:38.671Z,6.34
2023-01-26T12:37:35.055Z,6.41
2023-01-26T12:40:16.542Z,6.26
2023-01-26T12:42:52.173Z,6.22
2023-01-26T12:45:20.883Z,6.49
2023-01-26T12:47:52.392Z,6.64
2023-01-26T12:50:36.029Z,6.75
2023-01-26T12:53:07.813Z,6.92
2023-01-26T12:55:49.773Z,6.73
2023-01-26T12:58:22.859Z,6.62
2023-01-26T13:01:00.576Z,6.63
2023-01-26T13:03:32.700Z,6.30
2023-01-26T13:05:59.262Z,6.52
2023-01-26T13:08:31.916Z,6.41
2023-01-26T13:10:59.522Z,6.44
2023-01-26T13:13:31.444Z,6.33
2023-01-26T13:16:30.115Z,6.30
2023-01-26T13:18:57.389Z,6.45
2023-01-26T13:21:39.247Z,6.54
2023-01-26T13:24:18.038Z,6.70
2023-01-26T13:26:57.329Z,6.60
2023-01-26T13:29:31.673Z,6.58
2023-01-26T13:32:15.885Z,6.50
2023-01-26T13:34:44.651Z,6.43
2023-01-26T13:37:14.661Z,6.58
2023-01-26T13:39:42.318Z,6.64
2023-01-26T13:42:36.344Z,6.86
2023-01-26T13:45:16.645Z,7.04
2023-01-26T13:47:44.920Z,7.21
2023-01-26T13:50:30.474Z,7.02
2023-01-26T13:52:57.338Z,6.73
2023-01-26T13:55:31.519Z,6.42
2023-01-26T13:58:17.665Z,6.46
2023-01-26T14:01:00.995Z,6.68
2023-01-26T14:03:27.653Z,6.43
2023-01-26T14:06:05.247Z,6.61
2023-01-26T14:08:31.926Z,6.68
2023-01-26T14:10:59.417Z,6.51
2023-01-26T14:13:32.088Z,6.33
2023-01-26T14:16:00.602Z,6.48
2023-01-26T14:18:27.343Z,6.54
2023-01-26T14:21:19.639Z,6.74
2023-01-26T14:23:47.309Z,6.71
2023-01-26T14:26:19.937Z,6.61
2023-01-26T14:28:46.656Z,6.51
2023-01-26T14:31:17.157Z,6.41
2023-01-26T14:33:44.056Z,6.52
2023-01-26T14:36:17.148Z,6.67
2023-01-26T14:38:45.240Z,6.79
2023-01-26T14:41:29.375Z,6.88
2023-01-26T14:44:00.149Z,6.72
2023-01-26T14:46:55.398Z,6.71
2023-01-26T14:49:27.155Z,6.87
2023-01-26T14:51:56.328Z,6.79
2023-01-26T14:54:31.795Z,6.88
2023-01-26T14:56:59.083Z,6.98
2023-01-26T14:59:37.859Z,6.68
2023-01-26T15:02:14.902Z,6.83
2023-01-26T15:04:41.965Z,6.75
2023-01-26T15:07:41.566Z,6.81
2023-01-26T15:10:41.424Z,6.80
2023-01-26T15:13:10.723Z,6.92
2023-01-26T15:15:38.785Z,7.03
2023-01-26T15:18:14.344Z,7.02
2023-01-26T15:20:46.306Z,6.80
2023-01-26T15:23:23.219Z,6.76
2023-01-26T15:25:49.920Z,6.88
2023-01-26T15:28:21.373Z,6.74
2023-01-26T15:30:49.706Z,6.87
2023-01-26T15:33:45.634Z,6.78
2023-01-26T15:36:33.509Z,6.54
2023-01-26T15:39:11.245Z,6.64
2023-01-26T15:41:37.917Z,6.85
2023-01-26T15:44:04.772Z,6.91
2023-01-26T15:46:31.508Z,6.95
2023-01-26T15:48:58.600Z,6.86
2023-01-26T15:51:27.755Z,6.89
2023-01-26T15:53:54.383Z,6.88
2023-01-26T15:56:21.135Z,6.74
2023-01-26T15:58:47.886Z,6.54
2023-01-26T16:01:30.946Z,6.41
2023-01-26T16:03:57.625Z,6.49
2023-01-26T16:06:28.831Z,6.65
2023-01-26T16:08:55.916Z,6.62
2023-01-26T16:11:25.115Z,6.55
2023-01-26T16:14:02.847Z,6.46
2023-01-26T16:16:30.430Z,6.29
2023-01-26T16:18:59.607Z,6.17
2023-01-26T16:21:31.003Z,6.05
2023-01-26T16:23:57.782Z,5.75
2023-01-26T16:26:25.167Z,5.91
2023-01-26T16:28:51.835Z,5.75
2023-01-26T16:31:44.720Z,5.89
2023-01-26T16:34:11.413Z,6.02
2023-01-26T16:36:38.075Z,6.12
2023-01-26T16:39:04.828Z,6.04
2023-01-26T16:41:32.309Z,6.25
2023-01-26T16:43:59.800Z,6.45
2023-01-26T16:46:26.793Z,6.30
2023-01-26T16:48:53.593Z,6.45
2023-01-26T16:51:21.069Z,6.35
2023-01-26T16:53:47.761Z,6.39
2023-01-26T16:56:15.089Z,6.41
2023-01-26T16:58:42.668Z,6.31
2023-01-26T17:01:23.072Z,6.28
2023-01-26T17:03:50.038Z,6.34
2023-01-26T17:06:17.715Z,6.32
2023-01-26T17:08:44.810Z,6.13
2023-01-26T17:11:18.749Z,6.31
2023-01-26T17:13:45.445Z,6.21
2023-01-26T17:16:19.458Z,6.13
2023-01-26T17:18:46.395Z,6.01
2023-01-26T17:21:14.221Z,6.27
2023-01-26T17:23:40.820Z,6.36
2023-01-26T17:26:07.449Z,6.29
2023-01-26T17:28:34.133Z,6.17
2023-01-26T17:31:01.474Z,6.25
2023-01-26T17:33:29.104Z,6.43
2023-01-26T17:36:02.217Z,6.57
2023-01-26T17:38:28.906Z,6.47
2023-01-26T17:40:56.354Z,6.47
2023-01-26T17:43:23.063Z,6.43
2023-01-26T17:45:49.836Z,6.16
2023-01-26T17:48:16.495Z,6.19
2023-01-26T17:50:49.459Z,6.31
2023-01-26T17:53:16.291Z,6.30
2023-01-26T17:55:43.588Z,6.40
2023-01-26T17:58:10.237Z,6.40
2023-01-26T18:00:37.875Z,6.12
2023-01-26T18:03:05.275Z,6.29
2023-01-26T18:05:32.555Z,6.17
2023-01-26T18:07:59.298Z,6.29
2023-01-26T18:10:26.081Z,6.32
2023-01-26T18:12:52.952Z,6.39
2023-01-26T18:15:19.663Z,6.34
2023-01-26T18:17:46.562Z,6.14
2023-01-26T18:20:13.379Z,6.32
2023-01-26T18:22:40.159Z,6.45
2023-01-26T18:25:07.177Z,6.45
2023-01-26T18:27:33.882Z,6.47
2023-01-26T18:30:00.622Z,6.44
2023-01-26T18:32:28.331Z,6.18
2023-01-26T18:34:54.932Z,5.92
2023-01-26T18:37:21.546Z,5.93
2023-01-26T18:39:48.295Z,5.82
2023-01-26T18:42:15.007Z,5.83
2023-01-26T18:44:41.672Z,5.47
2023-01-26T18:47:08.293Z,5.67
2023-01-26T18:49:35.004Z,5.87
2023-01-26T18:52:01.736Z,6.06
2023-01-26T18:54:28.419Z,6.15
2023-01-26T18:56:55.243Z,6.28
2023-01-26T18:59:21.893Z,6.12
2023-01-26T19:01:48.544Z,6.06
2023-01-26T19:04:17.965Z,5.90
2023-01-26T19:06:44.979Z,5.76
2023-01-26T19:09:11.705Z,5.87
2023-01-26T19:11:38.461Z,5.95
2023-01-26T19:14:05.918Z,6.08
2023-01-26T19:16:32.603Z,6.04
2023-01-26T19:18:59.322Z,6.01
2023-01-26T19:21:26.714Z,6.07
2023-01-26T19:23:54.376Z,5.63
2023-01-26T19:26:22.922Z,5.72
2023-01-26T19:28:50.694Z,5.92
2023-01-26T19:31:18.872Z,5.96
2023-01-26T19:33:52.564Z,6.00
2023-01-26T19:36:19.209Z,5.85
2023-01-26T19:38:45.983Z,5.82
2023-01-26T19:41:12.751Z,5.92
2023-01-26T19:43:39.420Z,5.94
2023-01-26T19:46:06.105Z,5.91
2023-01-26T19:48:32.771Z,5.93
2023-01-26T19:51:04.593Z,5.87
2023-01-26T19:53:32.023Z,5.73
2023-01-26T19:55:58.795Z,5.71
2023-01-26T19:58:28.315Z,5.59
2023-01-26T20:01:01.761Z,5.64
2023-01-26T20:03:28.536Z,5.48
2023-01-26T20:05:55.210Z,5.71
2023-01-26T20:08:21.845Z,5.81
2023-01-26T20:10:48.455Z,5.82
2023-01-26T20:13:15.261Z,5.33
2023-01-26T20:15:42.107Z,5.69
2023-01-26T20:18:08.798Z,5.78
2023-01-26T20:20:35.938Z,5.29
2023-01-26T20:23:02.616Z,5.48
2023-01-26T20:25:29.219Z,5.38
2023-01-26T20:27:55.831Z,5.52
2023-01-26T20:30:24.606Z,5.51
2023-01-26T20:32:54.039Z,5.44
2023-01-26T20:35:20.775Z,5.49
2023-01-26T20:37:47.396Z,5.18
2023-01-26T20:40:14.507Z,5.29
2023-01-26T20:42:41.393Z,5.25
2023-01-26T20:45:08.347Z,5.22
2023-01-26T20:47:35.199Z,5.44
2023-01-26T20:50:01.850Z,5.57
2023-01-26T20:52:28.598Z,5.73
2023-01-26T20:54:55.277Z,5.85
2023-01-26T20:57:21.959Z,5.89
2023-01-26T20:59:49.013Z,5.57
2023-01-26T21:02:15.884Z,5.49
2023-01-26T21:04:42.693Z,5.58
2023-01-26T21:07:09.735Z,5.64
2023-01-26T21:09:36.353Z,5.80
2023-01-26T21:12:03.075Z,5.97
2023-01-26T21:14:29.782Z,6.07
2023-01-26T21:16:56.416Z,6.18
2023-01-26T21:19:24.033Z,6.22
2023-01-26T21:21:50.647Z,6.12
2023-01-26T21:24:17.467Z,6.21
2023-01-26T21:26:44.215Z,6.10
2023-01-26T21:29:13.212Z,5.67
2023-01-26T21:31:42.650Z,5.70
2023-01-26T21:34:09.453Z,5.58
2023-01-26T21:36:36.087Z,5.44
2023-01-26T21:39:03.084Z,5.38
2023-01-26T21:41:31.158Z,5.35
2023-01-26T21:44:00.648Z,5.55
2023-01-26T21:46:27.594Z,5.68
2023-01-26T21:48:54.358Z,5.76
2023-01-26T21:51:21.217Z,5.90
2023-01-26T21:53:47.930Z,5.94
2023-01-26T21:56:14.726Z,5.73
2023-01-26T21:58:41.518Z,5.68
2023-01-26T22:01:08.453Z,5.70
2023-01-26T22:03:35.056Z,5.60
2023-01-26T22:06:01.956Z,5.76
2023-01-26T22:08:28.873Z,5.90
2023-01-26T22:10:55.668Z,5.80
2023-01-26T22:13:22.636Z,5.89
2023-01-26T22:15:49.453Z,5.95
2023-01-26T22:18:16.613Z,5.74
2023-01-26T22:20:43.591Z,5.70
2023-01-26T22:23:10.784Z,5.88
2023-01-26T22:25:38.346Z,6.04
2023-01-26T22:28:05.450Z,6.02
2023-01-26T22:30:32.102Z,5.86
2023-01-26T22:32:58.744Z,5.86
2023-01-26T22:35:25.459Z,5.85
2023-01-26T22:37:52.091Z,5.98
2023-01-26T22:40:19.172Z,6.10
2023-01-26T22:42:45.832Z,5.96
2023-01-26T22:45:12.455Z,6.01
2023-01-26T22:47:39.105Z,5.98
2023-01-26T22:50:05.791Z,5.91
2023-01-26T22:52:32.496Z,5.92
2023-01-26T22:54:59.091Z,5.91
2023-01-26T22:57:25.735Z,5.99
2023-01-26T22:59:52.360Z,6.01
2023-01-26T23:02:19.191Z,5.98
2023-01-26T23:04:45.803Z,5.93
2023-01-26T23:07:12.583Z,5.78
2023-01-26T23:09:39.394Z,5.82
2023-01-26T23:12:06.257Z,5.55
2023-01-26T23:14:33.107Z,5.71
2023-01-26T23:16:59.776Z,5.77
2023-01-26T23:19:26.402Z,5.71
2023-01-26T23:21:53.024Z,5.25
2023-01-26T23:24:19.769Z,5.45
2023-01-26T23:26:46.490Z,5.70
2023-01-26T23:29:13.379Z,5.77
2023-01-26T23:31:40.064Z,5.86
2023-01-26T23:34:06.829Z,5.78
2023-01-26T23:36:33.538Z,5.81
2023-01-26T23:39:00.196Z,5.83
2023-01-26T23:41:26.888Z,5.93
2023-01-26T23:43:53.687Z,5.97
2023-01-26T23:46:20.436Z,6.04
2023-01-26T23:48:47.146Z,6.09
2023-01-26T23:51:14.157Z,5.76
2023-01-26T23:53:41.060Z,5.98
2023-01-26T23:56:10.356Z,6.00
2023-01-26T23:58:37.215Z,6.09
